Kezdőlap
METAR-TAF:

METAR-TAF

Repülőterek :

Xi'an, Kína

földrajzi szélesség: 34-26N, földrajzi hosszúság: 108-45E, magasság: 479 m

Jelenlegi meteorológiai megfigyelések

A jelentés 30 perccel ezelõtt készült, 21:00 UTC
Dél-délnyugati szél 2 kt
Hőmérséklet 14°C
Páratartalom 88%
Légköri nyomás 1019 hPa
Látótávolság: 8000 m

METAR: ZLXY 262100Z 21001MPS 8000 NSC 14/12 Q1019 NOSIG

Idő: 05:30 (21:30 UTC)

Előrejelzés

A jelentés 6 órával és 25 perccel ezelõtt készült, 15:05 UTC
Az előrejelzés 26-én 18 óra UTC és 27-én 18 óra UTC között érvényes
Nyugat-délnyugati szél 6 kt
Látótávolság: 3000 m
Száraz légköri homály

TAF: ZLXY 261505Z 2618/2718 24003MPS 3000 HZ NSC TX28/2708Z TN12/2622Z

Meteorológiai megfigyelések és előrejelzések több, mint 4000 repülőtéren (METAR és TAF jelentéseket).

A térképen piros és sárga pontok jelzik az elérhető meteorológiai állomásokat.

Mozgassa az egeret a pont fölött, hogy megjelenjen az állomás neve.

Azután kattintson az időjárási megfigyelések és előrejelzések megtekintéséhez.

A térkép megváltoztatása: kattintson a fekete keresztel jelölt zöld gombra ráközelítéshez, a vonallal jelölt zöld gombra távolításhoz, vagy a zöld nyilakra a szomszédos térképek eléréséhez.


METAR-TAF: